createdAt,value
2023-04-18T00:00:31.515Z,11.94
2023-04-18T00:03:18.581Z,11.92
2023-04-18T00:06:05.925Z,11.92
2023-04-18T00:08:52.806Z,11.89
2023-04-18T00:11:39.649Z,11.86
2023-04-18T00:14:26.423Z,11.87
2023-04-18T00:17:13.467Z,11.86
2023-04-18T00:20:02.276Z,11.86
2023-04-18T00:22:49.122Z,11.83
2023-04-18T00:25:35.947Z,11.80
2023-04-18T00:28:22.717Z,11.77
2023-04-18T00:31:09.656Z,11.77
2023-04-18T00:33:56.479Z,11.75
2023-04-18T00:36:43.352Z,11.74
2023-04-18T00:39:30.251Z,11.72
2023-04-18T00:42:17.067Z,11.71
2023-04-18T00:45:04.244Z,11.70
2023-04-18T00:47:51.667Z,11.69
2023-04-18T00:50:38.688Z,11.67
2023-04-18T00:53:25.546Z,11.65
2023-04-18T00:56:12.581Z,11.65
2023-04-18T00:58:59.470Z,11.63
2023-04-18T01:01:46.569Z,11.62
2023-04-18T01:04:33.576Z,11.61
2023-04-18T01:07:20.531Z,11.60
2023-04-18T01:10:08.516Z,11.59
2023-04-18T01:13:11.297Z,11.56
2023-04-18T01:15:59.037Z,11.54
2023-04-18T01:18:46.293Z,11.55
2023-04-18T01:21:37.459Z,11.52
2023-04-18T01:24:26.703Z,11.50
2023-04-18T01:27:14.080Z,11.49
2023-04-18T01:30:01.102Z,11.48
2023-04-18T01:32:48.046Z,11.45
2023-04-18T01:35:34.956Z,11.45
2023-04-18T01:38:21.790Z,11.44
2023-04-18T01:41:08.683Z,11.43
2023-04-18T01:43:55.502Z,11.41
2023-04-18T01:46:42.557Z,11.41
2023-04-18T01:49:29.454Z,11.39
2023-04-18T01:52:17.404Z,11.38
2023-04-18T01:55:04.660Z,11.38
2023-04-18T01:57:51.557Z,11.36
2023-04-18T02:00:38.397Z,11.35
2023-04-18T02:03:25.768Z,11.33
2023-04-18T02:06:12.729Z,11.33
2023-04-18T02:08:59.543Z,11.31
2023-04-18T02:11:46.497Z,11.29
2023-04-18T02:14:35.235Z,11.29
2023-04-18T02:17:23.660Z,11.28
2023-04-18T02:20:10.953Z,11.27
2023-04-18T02:22:58.780Z,11.25
2023-04-18T02:25:45.808Z,11.24
2023-04-18T02:28:32.808Z,11.23
2023-04-18T02:31:19.705Z,11.22
2023-04-18T02:34:07.024Z,11.22
2023-04-18T02:36:53.872Z,11.22
2023-04-18T02:39:40.708Z,11.21
2023-04-18T02:42:27.559Z,11.19
2023-04-18T02:45:14.493Z,11.16
2023-04-18T02:48:01.497Z,11.18
2023-04-18T02:50:48.324Z,11.16
2023-04-18T02:53:35.457Z,11.15
2023-04-18T02:56:22.487Z,11.13
2023-04-18T02:59:09.336Z,11.11
2023-04-18T03:01:56.178Z,11.09
2023-04-18T03:04:43.263Z,11.08
2023-04-18T03:07:30.915Z,11.06
2023-04-18T03:10:18.304Z,11.05
2023-04-18T03:13:05.119Z,11.04
2023-04-18T03:15:51.981Z,11.04
2023-04-18T03:18:38.967Z,11.02
2023-04-18T03:21:25.826Z,11.01
2023-04-18T03:24:12.831Z,11.01
2023-04-18T03:27:00.550Z,11.00
2023-04-18T03:29:47.487Z,10.98
2023-04-18T03:32:35.271Z,10.97
2023-04-18T03:35:22.296Z,10.96
2023-04-18T03:38:09.140Z,10.96
2023-04-18T03:40:55.981Z,10.95
2023-04-18T03:43:42.938Z,10.94
2023-04-18T03:46:30.041Z,10.92
2023-04-18T03:49:16.875Z,10.92
2023-04-18T03:52:03.807Z,10.91
2023-04-18T03:54:50.679Z,10.91
2023-04-18T03:57:37.512Z,10.89
2023-04-18T04:00:24.559Z,10.87
2023-04-18T04:03:11.568Z,10.87
2023-04-18T04:05:58.514Z,10.87
2023-04-18T04:08:45.510Z,10.85
2023-04-18T04:11:32.386Z,10.83
2023-04-18T04:14:19.335Z,10.85
2023-04-18T04:17:06.357Z,10.84
2023-04-18T04:19:53.380Z,10.83
2023-04-18T04:22:40.368Z,10.83
2023-04-18T04:25:28.777Z,10.82
2023-04-18T04:28:15.998Z,10.80
2023-04-18T04:31:06.384Z,10.78
2023-04-18T04:33:53.457Z,10.76
2023-04-18T04:36:41.579Z,10.76
2023-04-18T04:39:28.661Z,10.75
2023-04-18T04:42:15.546Z,10.74
2023-04-18T04:45:03.445Z,10.74
2023-04-18T04:47:50.391Z,10.73
2023-04-18T04:50:38.718Z,10.71
2023-04-18T04:53:27.901Z,10.71
2023-04-18T04:56:14.736Z,10.69
2023-04-18T04:59:01.957Z,10.69
2023-04-18T05:01:48.835Z,10.66
2023-04-18T05:04:36.311Z,10.66
2023-04-18T05:07:23.420Z,10.65
2023-04-18T05:10:10.684Z,10.64
2023-04-18T05:12:57.505Z,10.63
2023-04-18T05:15:44.548Z,10.63
2023-04-18T05:18:33.074Z,10.60
2023-04-18T05:21:21.797Z,10.59
2023-04-18T05:24:08.807Z,10.58
2023-04-18T05:26:55.985Z,10.56
2023-04-18T05:29:42.832Z,10.56
2023-04-18T05:32:29.713Z,10.56
2023-04-18T05:35:16.605Z,10.55
2023-04-18T05:38:03.446Z,10.54
2023-04-18T05:40:55.525Z,10.54
2023-04-18T05:43:44.486Z,10.53
2023-04-18T05:46:35.773Z,10.53
2023-04-18T05:49:22.655Z,10.53
2023-04-18T05:52:09.500Z,10.51
2023-04-18T05:54:56.307Z,10.52
2023-04-18T05:57:43.129Z,10.52
2023-04-18T06:00:29.928Z,10.51
2023-04-18T06:03:17.158Z,10.52
2023-04-18T06:06:04.496Z,10.52
2023-04-18T06:08:51.375Z,10.51
2023-04-18T06:11:38.213Z,10.51
2023-04-18T06:14:26.006Z,10.51
2023-04-18T06:17:13.149Z,10.50
2023-04-18T06:19:59.983Z,10.52
2023-04-18T06:22:46.799Z,10.51
2023-04-18T06:25:33.780Z,10.49
2023-04-18T06:28:20.769Z,10.49
2023-04-18T06:31:08.595Z,10.51
2023-04-18T06:33:55.873Z,10.50
2023-04-18T06:36:43.121Z,10.50
2023-04-18T06:39:30.260Z,10.50
2023-04-18T06:42:17.169Z,10.49
2023-04-18T06:45:05.956Z,10.47
2023-04-18T06:47:53.173Z,10.48
2023-04-18T06:50:40.130Z,10.49
2023-04-18T06:53:26.946Z,10.48
2023-04-18T06:56:13.828Z,10.49
2023-04-18T06:59:00.644Z,10.48
2023-04-18T07:01:47.851Z,10.48
2023-04-18T07:04:34.699Z,10.48
2023-04-18T07:07:21.701Z,10.47
2023-04-18T07:10:09.818Z,10.47
2023-04-18T07:12:56.767Z,10.47
2023-04-18T07:15:43.693Z,10.47
2023-04-18T07:18:37.222Z,10.46
2023-04-18T07:21:25.677Z,10.47
2023-04-18T07:24:13.060Z,10.47
2023-04-18T07:27:01.354Z,10.48
2023-04-18T07:29:48.341Z,10.40
2023-04-18T07:32:35.492Z,10.35
2023-04-18T07:35:22.435Z,10.26
2023-04-18T07:38:10.108Z,10.25
2023-04-18T07:41:01.127Z,10.28
2023-04-18T07:43:47.915Z,10.36
2023-04-18T07:46:34.861Z,10.43
2023-04-18T07:49:21.779Z,10.47
2023-04-18T07:52:08.646Z,10.49
2023-04-18T07:54:55.568Z,10.51
2023-04-18T07:57:45.752Z,10.51
2023-04-18T08:00:33.266Z,10.51
2023-04-18T08:03:20.363Z,10.50
2023-04-18T08:06:07.930Z,10.49
2023-04-18T08:08:54.908Z,10.46
2023-04-18T08:11:42.586Z,10.46
2023-04-18T08:14:29.401Z,10.43
2023-04-18T08:17:16.386Z,10.45
2023-04-18T08:20:07.335Z,10.44
2023-04-18T08:23:05.677Z,10.44
2023-04-18T08:25:53.563Z,10.43
2023-04-18T08:28:41.121Z,10.43
2023-04-18T08:31:28.039Z,10.43
2023-04-18T08:34:14.922Z,10.41
2023-04-18T08:37:01.990Z,10.43
2023-04-18T08:39:48.922Z,10.42
2023-04-18T08:42:36.940Z,10.41
2023-04-18T08:45:24.226Z,10.43
2023-04-18T08:48:14.967Z,10.43
2023-04-18T08:51:02.334Z,10.45
2023-04-18T08:53:50.592Z,10.44
2023-04-18T08:56:37.504Z,10.45
2023-04-18T08:59:25.172Z,10.45
2023-04-18T09:02:13.178Z,10.46
2023-04-18T09:05:00.048Z,10.46
2023-04-18T09:07:47.972Z,10.50
2023-04-18T09:10:36.560Z,10.50
2023-04-18T09:13:47.276Z,10.51
2023-04-18T09:16:47.050Z,10.53
2023-04-18T09:19:33.998Z,10.54
2023-04-18T09:22:20.859Z,10.56
2023-04-18T09:25:09.538Z,10.57
2023-04-18T09:28:01.780Z,10.57
2023-04-18T09:30:51.428Z,10.59
2023-04-18T09:33:42.902Z,10.59
2023-04-18T09:36:31.460Z,10.60
2023-04-18T09:39:27.526Z,10.61
2023-04-18T09:42:14.455Z,10.63
2023-04-18T09:45:06.574Z,10.63
2023-04-18T09:47:53.975Z,10.64
2023-04-18T09:50:41.673Z,10.65
2023-04-18T09:53:28.791Z,10.65
2023-04-18T09:56:20.828Z,10.66
2023-04-18T09:59:09.307Z,10.67
2023-04-18T10:01:58.282Z,10.69
2023-04-18T10:04:46.896Z,10.71
2023-04-18T10:07:34.149Z,10.72
2023-04-18T10:10:21.033Z,10.72
2023-04-18T10:13:11.893Z,10.73
2023-04-18T10:15:59.010Z,10.74
2023-04-18T10:18:46.172Z,10.76
2023-04-18T10:21:34.234Z,10.78
2023-04-18T10:24:49.514Z,10.78
2023-04-18T10:27:48.698Z,10.79
2023-04-18T10:30:40.005Z,10.80
2023-04-18T10:33:36.056Z,10.80
2023-04-18T10:36:29.092Z,10.83
2023-04-18T10:39:23.289Z,10.86
2023-04-18T10:42:10.464Z,10.88
2023-04-18T10:45:17.813Z,10.91
2023-04-18T10:48:29.897Z,10.93
2023-04-18T10:51:21.934Z,10.93
2023-04-18T10:54:11.043Z,10.94
2023-04-18T10:56:58.636Z,10.94
2023-04-18T10:59:49.276Z,10.95
2023-04-18T11:02:37.204Z,10.98
2023-04-18T11:05:26.733Z,10.98
2023-04-18T11:08:23.934Z,10.99
2023-04-18T11:11:11.390Z,11.00
2023-04-18T11:13:58.921Z,11.02
2023-04-18T11:16:45.965Z,11.02
2023-04-18T11:19:32.829Z,11.04
2023-04-18T11:22:19.762Z,11.04
2023-04-18T11:25:09.900Z,11.06
2023-04-18T11:27:59.810Z,11.08
2023-04-18T11:30:47.082Z,11.09
2023-04-18T11:33:34.222Z,11.11
2023-04-18T11:36:21.060Z,11.13
2023-04-18T11:39:08.144Z,11.14
2023-04-18T11:41:57.111Z,11.16
2023-04-18T11:44:47.707Z,11.17
2023-04-18T11:47:34.920Z,11.20
2023-04-18T11:50:21.882Z,11.23
2023-04-18T11:53:08.716Z,11.25
2023-04-18T11:55:55.999Z,11.29
2023-04-18T11:58:43.086Z,11.28
2023-04-18T12:01:29.957Z,11.31
2023-04-18T12:04:19.101Z,11.33
2023-04-18T12:07:06.284Z,11.36
2023-04-18T12:09:53.130Z,11.38
2023-04-18T12:12:51.198Z,11.43
2023-04-18T12:15:40.373Z,11.43
2023-04-18T12:18:27.358Z,11.45
2023-04-18T12:21:16.917Z,11.47
2023-04-18T12:24:15.926Z,11.49
2023-04-18T12:27:03.438Z,11.52
2023-04-18T12:29:50.579Z,11.53
2023-04-18T12:32:37.410Z,11.53
2023-04-18T12:35:25.028Z,11.55
2023-04-18T12:38:11.855Z,11.56
2023-04-18T12:40:58.730Z,11.60
2023-04-18T12:43:45.648Z,11.63
2023-04-18T12:46:32.567Z,11.64
2023-04-18T12:49:19.452Z,11.63
2023-04-18T12:52:06.300Z,11.64
2023-04-18T12:54:53.232Z,11.66
2023-04-18T12:57:41.349Z,11.69
2023-04-18T13:00:31.245Z,11.75
2023-04-18T13:03:18.510Z,11.78
2023-04-18T13:06:06.572Z,11.83
2023-04-18T13:08:53.414Z,11.85
2023-04-18T13:11:40.232Z,11.82
2023-04-18T13:14:27.058Z,11.81
2023-04-18T13:17:13.886Z,11.83
2023-04-18T13:20:00.816Z,11.86
2023-04-18T13:22:47.789Z,11.88
2023-04-18T13:25:34.591Z,11.90
2023-04-18T13:28:21.461Z,11.89
2023-04-18T13:31:08.289Z,11.90
2023-04-18T13:33:55.377Z,11.92
2023-04-18T13:36:42.242Z,11.95
2023-04-18T13:39:31.834Z,11.97
2023-04-18T13:42:19.517Z,11.97
2023-04-18T13:45:07.308Z,11.97
2023-04-18T13:47:54.711Z,11.99
2023-04-18T13:50:42.669Z,12.01
2023-04-18T13:53:30.812Z,12.03
2023-04-18T13:56:18.200Z,12.04
2023-04-18T13:59:05.016Z,12.05
2023-04-18T14:01:53.089Z,12.04
2023-04-18T14:04:40.152Z,12.02
2023-04-18T14:07:27.144Z,12.05
2023-04-18T14:10:14.030Z,12.10
2023-04-18T14:13:00.907Z,12.13
2023-04-18T14:15:47.845Z,12.13
2023-04-18T14:18:34.682Z,12.18
2023-04-18T14:21:21.507Z,12.20
2023-04-18T14:24:08.423Z,12.19
2023-04-18T14:26:55.455Z,12.23
2023-04-18T14:29:42.287Z,12.25
2023-04-18T14:32:29.914Z,12.27
2023-04-18T14:35:16.900Z,12.31
2023-04-18T14:38:03.686Z,12.32
2023-04-18T14:40:50.522Z,12.34
2023-04-18T14:43:37.364Z,12.36
2023-04-18T14:46:24.355Z,12.37
2023-04-18T14:49:11.482Z,12.36
2023-04-18T14:51:58.297Z,12.36
2023-04-18T14:54:45.141Z,12.37
2023-04-18T14:57:31.969Z,12.37
2023-04-18T15:00:19.334Z,12.41
2023-04-18T15:03:07.697Z,12.46
2023-04-18T15:05:56.409Z,12.47
2023-04-18T15:08:44.381Z,12.48
2023-04-18T15:11:31.194Z,12.48
2023-04-18T15:14:18.110Z,12.49
2023-04-18T15:17:05.454Z,12.50
2023-04-18T15:19:52.504Z,12.51
2023-04-18T15:22:39.368Z,12.49
2023-04-18T15:25:26.267Z,12.50
2023-04-18T15:28:13.995Z,12.51
2023-04-18T15:31:00.919Z,12.56
2023-04-18T15:33:47.865Z,12.57
2023-04-18T15:36:35.962Z,12.57
2023-04-18T15:39:23.610Z,12.58
2023-04-18T15:42:10.634Z,12.59
2023-04-18T15:44:57.467Z,12.56
2023-04-18T15:47:44.366Z,12.59
2023-04-18T15:50:33.429Z,12.61
2023-04-18T15:53:20.798Z,12.61
2023-04-18T15:56:07.706Z,12.64
2023-04-18T15:58:59.246Z,12.63
2023-04-18T16:01:46.391Z,12.64
2023-04-18T16:04:33.414Z,12.63
2023-04-18T16:07:20.371Z,12.64
2023-04-18T16:10:11.222Z,12.65
2023-04-18T16:12:59.478Z,12.62
2023-04-18T16:15:46.401Z,12.63
2023-04-18T16:18:33.969Z,12.62
2023-04-18T16:21:20.893Z,12.63
2023-04-18T16:24:07.722Z,12.63
2023-04-18T16:26:55.584Z,12.66
2023-04-18T16:29:44.444Z,12.67
2023-04-18T16:32:31.322Z,12.68
2023-04-18T16:35:18.401Z,12.69
2023-04-18T16:38:05.457Z,12.70
2023-04-18T16:40:52.309Z,12.70
2023-04-18T16:43:39.122Z,12.68
2023-04-18T16:46:26.067Z,12.65
2023-04-18T16:49:13.115Z,12.66
2023-04-18T16:52:00.083Z,12.66
2023-04-18T16:54:46.935Z,12.65
2023-04-18T16:57:33.827Z,12.65
2023-04-18T17:00:21.111Z,12.64
2023-04-18T17:03:10.114Z,12.64
2023-04-18T17:05:57.086Z,12.66
2023-04-18T17:08:44.104Z,12.63
2023-04-18T17:11:34.679Z,12.34
2023-04-18T17:14:21.802Z,12.15
2023-04-18T17:17:08.663Z,12.00
2023-04-18T17:19:57.337Z,11.99
2023-04-18T17:22:44.543Z,12.05
2023-04-18T17:25:31.861Z,12.18
2023-04-18T17:28:18.889Z,12.31
2023-04-18T17:31:05.862Z,12.43
2023-04-18T17:33:54.438Z,12.53
2023-04-18T17:36:41.441Z,12.61
2023-04-18T17:39:28.442Z,12.69
2023-04-18T17:42:15.472Z,12.72
2023-04-18T17:45:09.547Z,12.77
2023-04-18T17:47:58.221Z,12.82
2023-04-18T17:50:45.123Z,12.87
2023-04-18T17:53:32.444Z,12.89
2023-04-18T17:56:19.452Z,12.92
2023-04-18T17:59:07.438Z,12.96
2023-04-18T18:01:54.522Z,12.97
2023-04-18T18:04:41.697Z,12.99
2023-04-18T18:07:28.736Z,12.99
2023-04-18T18:10:23.000Z,13.00
2023-04-18T18:13:10.064Z,13.01
2023-04-18T18:15:58.026Z,13.02
2023-04-18T18:18:44.931Z,13.02
2023-04-18T18:21:31.975Z,13.02
2023-04-18T18:24:18.900Z,13.02
2023-04-18T18:27:06.124Z,13.02
2023-04-18T18:29:53.211Z,13.02
2023-04-18T18:32:40.036Z,13.02
2023-04-18T18:35:26.898Z,13.02
2023-04-18T18:38:13.927Z,13.00
2023-04-18T18:41:03.598Z,13.01
2023-04-18T18:43:51.488Z,13.00
2023-04-18T18:46:38.403Z,13.00
2023-04-18T18:49:26.512Z,13.01
2023-04-18T18:52:13.420Z,13.00
2023-04-18T18:55:01.434Z,12.99
2023-04-18T18:57:48.427Z,12.99
2023-04-18T19:00:35.601Z,12.98
2023-04-18T19:03:23.404Z,12.98
2023-04-18T19:06:10.340Z,12.97
2023-04-18T19:08:57.173Z,12.97
2023-04-18T19:11:43.990Z,12.97
2023-04-18T19:14:30.816Z,12.97
2023-04-18T19:17:19.188Z,12.97
2023-04-18T19:20:06.729Z,12.97
2023-04-18T19:22:53.560Z,12.97
2023-04-18T19:25:40.460Z,12.97
2023-04-18T19:28:27.661Z,12.96
2023-04-18T19:31:14.610Z,12.95
2023-04-18T19:34:01.783Z,12.96
2023-04-18T19:36:48.745Z,12.97
2023-04-18T19:39:35.650Z,12.96
2023-04-18T19:42:22.472Z,12.94
2023-04-18T19:45:11.849Z,12.95
2023-04-18T19:47:58.772Z,12.95
2023-04-18T19:50:45.936Z,12.94
2023-04-18T19:53:32.879Z,12.94
2023-04-18T19:56:19.784Z,12.94
2023-04-18T19:59:06.814Z,12.94
2023-04-18T20:01:53.649Z,12.95
2023-04-18T20:04:41.784Z,12.94
2023-04-18T20:07:28.826Z,12.94
2023-04-18T20:10:15.830Z,12.94
2023-04-18T20:13:02.758Z,12.93
2023-04-18T20:15:49.967Z,12.95
2023-04-18T20:18:39.621Z,12.95
2023-04-18T20:21:27.259Z,12.95
2023-04-18T20:24:15.559Z,12.96
2023-04-18T20:27:02.984Z,12.95
2023-04-18T20:29:49.974Z,12.95
2023-04-18T20:32:36.863Z,12.94
2023-04-18T20:35:23.905Z,12.94
2023-04-18T20:38:12.372Z,12.95
2023-04-18T20:41:00.510Z,12.97
2023-04-18T20:43:47.406Z,12.97
2023-04-18T20:46:34.339Z,12.96
2023-04-18T20:49:21.328Z,12.96
2023-04-18T20:52:09.572Z,12.98
2023-04-18T20:54:56.408Z,12.96
2023-04-18T20:57:43.353Z,12.95
2023-04-18T21:00:30.386Z,12.93
2023-04-18T21:03:17.526Z,12.92
2023-04-18T21:06:04.525Z,12.92
2023-04-18T21:08:51.433Z,12.92
2023-04-18T21:11:38.341Z,12.91
2023-04-18T21:14:25.234Z,12.92
2023-04-18T21:17:16.987Z,12.90
2023-04-18T21:20:03.944Z,12.92
2023-04-18T21:22:50.806Z,12.90
2023-04-18T21:25:37.683Z,12.89
2023-04-18T21:28:24.518Z,12.90
2023-04-18T21:31:11.410Z,12.88
2023-04-18T21:33:59.820Z,12.88
2023-04-18T21:36:46.662Z,12.87
2023-04-18T21:39:33.594Z,12.86
2023-04-18T21:42:20.454Z,12.85
2023-04-18T21:45:08.017Z,12.84
2023-04-18T21:47:55.081Z,12.84
2023-04-18T21:50:43.105Z,12.83
2023-04-18T21:53:30.005Z,12.82
2023-04-18T21:56:17.157Z,12.82
2023-04-18T21:59:04.253Z,12.82
2023-04-18T22:01:51.175Z,12.81
2023-04-18T22:04:42.590Z,12.79
2023-04-18T22:07:29.566Z,12.77
2023-04-18T22:10:17.713Z,12.76
2023-04-18T22:13:04.819Z,12.74
2023-04-18T22:15:51.837Z,12.74
2023-04-18T22:18:38.662Z,12.72
2023-04-18T22:21:25.856Z,12.72
2023-04-18T22:24:12.898Z,12.71
2023-04-18T22:27:01.186Z,12.69
2023-04-18T22:29:48.015Z,12.70
2023-04-18T22:32:34.953Z,12.69
2023-04-18T22:35:22.076Z,12.68
2023-04-18T22:38:10.202Z,12.67
2023-04-18T22:40:57.030Z,12.67
2023-04-18T22:43:44.145Z,12.66
2023-04-18T22:46:31.018Z,12.65
2023-04-18T22:49:18.030Z,12.64
2023-04-18T22:52:06.187Z,12.64
2023-04-18T22:54:53.298Z,12.63
2023-04-18T22:57:40.129Z,12.63
2023-04-18T23:00:26.955Z,12.62
2023-04-18T23:03:13.861Z,12.62
2023-04-18T23:06:01.300Z,12.61
2023-04-18T23:08:48.129Z,12.58
2023-04-18T23:11:35.164Z,12.57
2023-04-18T23:14:22.520Z,12.57
2023-04-18T23:17:09.373Z,12.56
2023-04-18T23:19:56.266Z,12.55
2023-04-18T23:22:43.203Z,12.55
2023-04-18T23:25:33.191Z,12.55
2023-04-18T23:28:20.053Z,12.53
2023-04-18T23:31:06.996Z,12.51
2023-04-18T23:33:55.409Z,12.51
2023-04-18T23:36:42.390Z,12.49
2023-04-18T23:39:29.296Z,12.48
2023-04-18T23:42:16.160Z,12.48
2023-04-18T23:45:04.072Z,12.46
2023-04-18T23:47:51.511Z,12.45
2023-04-18T23:50:47.768Z,12.40
2023-04-18T23:53:34.591Z,12.41
2023-04-18T23:56:23.150Z,12.41
2023-04-18T23:59:09.977Z,12.39
